createdAt,value
2023-01-07T00:07:53.447Z,36.15
2023-01-07T00:16:01.472Z,34.65
2023-01-07T00:24:18.304Z,34.65
2023-01-07T00:32:44.070Z,37.75
2023-01-07T00:40:52.371Z,38.33
2023-01-07T00:48:58.039Z,30.60
2023-01-07T00:57:11.125Z,25.88
2023-01-07T01:05:17.837Z,27.88
2023-01-07T01:13:26.082Z,20.38
2023-01-07T01:21:32.115Z,19.88
2023-01-07T01:29:40.247Z,20.83
2023-01-07T01:37:46.339Z,21.17
2023-01-07T01:45:54.579Z,19.55
2023-01-07T01:54:00.978Z,21.48
2023-01-07T02:02:09.902Z,18.85
2023-01-07T02:10:23.661Z,14.73
2023-01-07T02:18:45.411Z,14.50
2023-01-07T02:27:28.259Z,13.35
2023-01-07T02:35:57.152Z,13.73
2023-01-07T02:44:07.906Z,13.45
2023-01-07T02:52:30.800Z,14.38
2023-01-07T03:00:55.979Z,13.67
2023-01-07T03:09:13.588Z,12.13
2023-01-07T03:17:22.646Z,11.18
2023-01-07T03:25:41.445Z,10.20
2023-01-07T03:33:52.329Z,9.73
2023-01-07T03:42:12.835Z,8.57
2023-01-07T03:50:19.566Z,8.85
2023-01-07T03:58:31.112Z,8.35
2023-01-07T04:06:36.673Z,10.00
2023-01-07T04:14:45.120Z,10.40
2023-01-07T04:22:51.305Z,9.52
2023-01-07T04:31:01.946Z,8.48
2023-01-07T04:39:08.738Z,9.38
2023-01-07T04:47:16.957Z,8.25
2023-01-07T04:55:23.411Z,7.82
2023-01-07T05:03:37.526Z,7.50
2023-01-07T05:11:47.831Z,6.57
2023-01-07T05:19:56.145Z,7.50
2023-01-07T05:28:06.365Z,7.18
2023-01-07T05:36:18.564Z,12.10
2023-01-07T05:44:24.233Z,10.07
2023-01-07T05:52:32.817Z,13.10
2023-01-07T06:00:38.904Z,12.93
2023-01-07T06:08:47.313Z,12.18
2023-01-07T06:16:52.824Z,12.55
2023-01-07T06:25:01.616Z,12.32
2023-01-07T06:33:07.764Z,12.88
2023-01-07T06:41:23.242Z,12.07
2023-01-07T06:49:32.056Z,10.25
2023-01-07T06:57:42.292Z,10.23
2023-01-07T07:05:48.038Z,10.95
2023-01-07T07:13:57.563Z,11.10
2023-01-07T07:22:05.953Z,10.40
2023-01-07T07:30:15.830Z,10.27
2023-01-07T07:38:21.633Z,10.10
2023-01-07T07:46:29.886Z,10.48
2023-01-07T07:54:35.583Z,9.18
2023-01-07T08:02:43.512Z,9.25
2023-01-07T08:10:48.902Z,9.85
2023-01-07T08:18:57.114Z,10.45
2023-01-07T08:27:03.894Z,12.38
2023-01-07T08:35:13.189Z,11.23
2023-01-07T08:43:19.825Z,9.10
2023-01-07T08:51:28.243Z,12.43
2023-01-07T08:59:33.668Z,13.18
2023-01-07T09:07:42.009Z,11.32
2023-01-07T09:15:48.577Z,11.13
2023-01-07T09:24:04.631Z,8.65
2023-01-07T09:32:21.462Z,7.35
2023-01-07T09:40:40.626Z,6.97
2023-01-07T09:48:55.774Z,6.72
2023-01-07T09:57:11.693Z,8.25
2023-01-07T10:05:30.053Z,8.85
2023-01-07T10:14:02.892Z,8.65
2023-01-07T10:22:28.918Z,9.10
2023-01-07T10:30:47.016Z,10.70
2023-01-07T10:39:33.043Z,11.90
2023-01-07T10:48:02.062Z,9.35
2023-01-07T10:56:20.643Z,9.13
2023-01-07T11:05:22.844Z,11.35
2023-01-07T11:23:13.803Z,13.02
2023-01-07T11:31:22.410Z,18.40
2023-01-07T11:39:57.753Z,21.92
2023-01-07T11:57:15.082Z,12.10
2023-01-07T12:05:24.597Z,12.00
2023-01-07T12:13:34.585Z,11.52
2023-01-07T12:21:52.755Z,11.95
2023-01-07T12:39:53.533Z,10.25
2023-01-07T12:57:18.085Z,9.40
2023-01-07T13:05:54.174Z,9.18
2023-01-07T13:14:47.581Z,8.73
2023-01-07T13:23:03.381Z,8.93
2023-01-07T13:31:42.673Z,9.32
2023-01-07T13:40:06.178Z,9.77
2023-01-07T13:48:24.348Z,11.68
2023-01-07T13:56:38.929Z,12.65
2023-01-07T14:04:54.327Z,14.20
2023-01-07T14:13:24.965Z,16.20
2023-01-07T14:22:07.928Z,14.50
2023-01-07T14:30:28.718Z,16.58
2023-01-07T14:39:22.259Z,18.17
2023-01-07T14:47:58.156Z,20.83
2023-01-07T14:56:32.755Z,17.98
2023-01-07T15:05:13.464Z,18.42
2023-01-07T15:14:17.001Z,17.35
2023-01-07T15:22:54.449Z,17.60
2023-01-07T15:31:26.709Z,21.88
2023-01-07T15:56:32.871Z,24.35
2023-01-07T16:04:43.994Z,24.05
2023-01-07T16:12:53.641Z,24.67
2023-01-07T16:21:08.009Z,21.42
2023-01-07T16:29:20.008Z,20.20
2023-01-07T16:37:29.099Z,20.60
2023-01-07T16:45:36.129Z,17.33
2023-01-07T16:53:46.617Z,17.85
2023-01-07T17:01:54.347Z,18.83
2023-01-07T17:10:05.040Z,18.63
2023-01-07T17:18:34.441Z,16.80
2023-01-07T17:26:45.432Z,15.40
2023-01-07T17:34:50.847Z,13.88
2023-01-07T17:43:13.786Z,11.45
2023-01-07T17:51:19.619Z,11.60
2023-01-07T17:59:33.148Z,11.88
2023-01-07T18:07:38.588Z,11.35
2023-01-07T18:15:46.601Z,12.18
2023-01-07T18:23:52.276Z,13.57
2023-01-07T18:32:01.527Z,17.65
2023-01-07T18:40:08.536Z,18.35
2023-01-07T18:48:18.218Z,24.17
2023-01-07T18:56:23.723Z,17.13
2023-01-07T19:04:37.707Z,16.48
2023-01-07T19:12:43.175Z,17.50
2023-01-07T19:20:51.884Z,16.90
2023-01-07T19:29:01.847Z,24.48
2023-01-07T19:37:10.606Z,25.48
2023-01-07T19:45:16.168Z,21.10
2023-01-07T19:53:24.547Z,22.33
2023-01-07T20:01:30.343Z,17.92
2023-01-07T20:09:38.483Z,15.88
2023-01-07T20:17:43.833Z,13.60
2023-01-07T20:25:51.872Z,12.77
2023-01-07T20:33:58.428Z,15.82
2023-01-07T20:42:07.001Z,16.25
2023-01-07T20:50:15.401Z,18.70
2023-01-07T20:58:23.712Z,17.23
2023-01-07T21:06:29.411Z,15.23
2023-01-07T21:14:37.497Z,15.73
2023-01-07T21:22:43.355Z,14.65
2023-01-07T21:30:51.843Z,15.07
2023-01-07T21:39:01.357Z,15.25
2023-01-07T21:47:15.976Z,19.75
2023-01-07T21:55:24.564Z,21.58
2023-01-07T22:03:32.735Z,19.15
2023-01-07T22:11:41.577Z,18.27
2023-01-07T22:19:49.738Z,18.92
2023-01-07T22:27:59.419Z,17.67
2023-01-07T22:36:08.304Z,21.52
2023-01-07T22:44:19.684Z,27.73
2023-01-07T22:52:27.908Z,23.35
2023-01-07T23:00:44.334Z,22.95
2023-01-07T23:08:52.511Z,24.95
2023-01-07T23:16:59.191Z,19.45
2023-01-07T23:25:08.184Z,20.48
2023-01-07T23:33:14.045Z,18.70
2023-01-07T23:41:22.094Z,17.00
2023-01-07T23:49:27.390Z,17.10
2023-01-07T23:57:35.565Z,29.63
